createdAt,value
2023-01-30T00:02:33.631Z,0.23
2023-01-30T00:07:35.044Z,0.19
2023-01-30T00:12:36.437Z,0.12
2023-01-30T00:17:37.835Z,0.11
2023-01-30T00:22:42.367Z,0.08
2023-01-30T00:27:45.583Z,0.04
2023-01-30T00:32:47.082Z,0.05
2023-01-30T00:37:48.519Z,0.10
2023-01-30T00:43:08.864Z,0.21
2023-01-30T00:48:10.454Z,0.40
2023-01-30T00:53:14.024Z,0.49
2023-01-30T00:58:15.456Z,0.53
2023-01-30T01:03:17.645Z,0.52
2023-01-30T01:08:20.090Z,0.43
2023-01-30T01:13:21.788Z,0.32
2023-01-30T01:18:23.292Z,0.25
2023-01-30T01:23:24.721Z,0.30
2023-01-30T01:28:26.107Z,0.38
2023-01-30T01:33:28.511Z,0.30
2023-01-30T01:38:30.289Z,0.22
2023-01-30T01:43:37.397Z,0.20
2023-01-30T01:48:51.953Z,0.17
2023-01-30T01:53:58.808Z,0.11
2023-01-30T01:59:13.732Z,0.02
2023-01-30T02:04:35.813Z,-0.05
2023-01-30T02:09:37.587Z,0.05
2023-01-30T02:14:40.400Z,0.21
2023-01-30T02:19:51.079Z,0.16
2023-01-30T02:25:21.119Z,0.14
2023-01-30T02:30:44.471Z,0.19
2023-01-30T02:36:17.034Z,0.27
2023-01-30T02:41:37.307Z,0.31
2023-01-30T02:46:58.990Z,0.26
2023-01-30T02:52:03.385Z,0.18
2023-01-30T02:57:18.922Z,0.11
2023-01-30T03:02:29.566Z,0.18
2023-01-30T03:08:14.212Z,0.27
2023-01-30T03:13:40.641Z,0.41
2023-01-30T03:18:43.418Z,0.61
2023-01-30T03:23:48.369Z,0.69
2023-01-30T03:28:51.139Z,0.80
2023-01-30T03:33:52.753Z,0.77
2023-01-30T03:38:54.246Z,0.71
2023-01-30T03:43:55.716Z,0.70
2023-01-30T03:48:57.094Z,0.84
2023-01-30T03:53:58.569Z,1.10
2023-01-30T03:59:00.032Z,1.28
2023-01-30T04:04:01.421Z,1.45
2023-01-30T04:09:02.884Z,1.53
2023-01-30T04:14:04.246Z,1.60
2023-01-30T04:19:05.736Z,1.62
2023-01-30T04:24:07.319Z,1.63
2023-01-30T04:29:08.919Z,1.66
2023-01-30T04:34:10.328Z,1.69
2023-01-30T04:39:11.732Z,1.74
2023-01-30T04:44:13.141Z,1.80
2023-01-30T04:49:14.606Z,1.83
2023-01-30T04:54:16.122Z,1.91
2023-01-30T04:59:17.583Z,1.88
2023-01-30T05:04:19.010Z,1.85
2023-01-30T05:09:20.435Z,1.78
2023-01-30T05:14:21.884Z,1.81
2023-01-30T05:19:23.368Z,1.86
2023-01-30T05:24:24.870Z,1.83
2023-01-30T05:29:26.251Z,1.86
2023-01-30T05:34:27.709Z,1.89
2023-01-30T05:39:29.177Z,1.91
2023-01-30T05:44:31.110Z,1.87
2023-01-30T05:49:32.527Z,1.88
2023-01-30T05:54:34.893Z,1.93
2023-01-30T05:59:36.370Z,1.90
2023-01-30T06:04:37.886Z,1.93
2023-01-30T06:09:39.399Z,1.99
2023-01-30T06:14:40.939Z,2.00
2023-01-30T06:19:42.352Z,1.97
2023-01-30T06:24:43.780Z,1.99
2023-01-30T06:29:45.255Z,1.99
2023-01-30T06:34:46.708Z,1.97
2023-01-30T06:39:48.145Z,1.99
2023-01-30T06:44:49.714Z,2.06
2023-01-30T06:49:51.135Z,2.00
2023-01-30T06:54:52.636Z,2.07
2023-01-30T06:59:54.065Z,2.09
2023-01-30T07:04:55.576Z,2.14
2023-01-30T07:10:07.381Z,2.17
2023-01-30T07:15:09.861Z,2.24
2023-01-30T07:20:11.858Z,2.28
2023-01-30T07:25:13.319Z,2.24
2023-01-30T07:30:15.090Z,2.25
2023-01-30T07:35:16.607Z,2.23
2023-01-30T07:40:19.217Z,2.26
2023-01-30T07:45:20.712Z,2.22
2023-01-30T07:50:22.176Z,2.18
2023-01-30T07:55:23.871Z,2.09
2023-01-30T08:00:25.779Z,2.19
2023-01-30T08:05:27.265Z,2.32
2023-01-30T08:10:28.849Z,2.31
2023-01-30T08:15:31.892Z,2.30
2023-01-30T08:20:33.691Z,2.37
2023-01-30T08:25:35.875Z,2.44
2023-01-30T08:30:37.452Z,2.50
2023-01-30T08:35:40.459Z,2.51
2023-01-30T08:40:42.591Z,2.57
2023-01-30T08:45:44.046Z,2.53
2023-01-30T08:50:45.613Z,2.44
2023-01-30T08:55:51.293Z,2.55
2023-01-30T09:00:52.858Z,2.46
2023-01-30T09:05:56.119Z,2.55
2023-01-30T09:11:02.230Z,2.50
2023-01-30T09:16:06.339Z,2.63
2023-01-30T09:21:09.521Z,2.70
2023-01-30T09:26:11.166Z,2.77
2023-01-30T09:31:13.037Z,3.09
2023-01-30T09:36:14.815Z,3.15
2023-01-30T09:41:47.271Z,3.18
2023-01-30T09:47:00.959Z,3.27
2023-01-30T09:52:29.691Z,3.26
2023-01-30T09:57:31.263Z,3.21
2023-01-30T10:02:44.575Z,3.25
2023-01-30T10:08:06.786Z,3.31
2023-01-30T10:13:39.094Z,3.31
2023-01-30T10:18:49.590Z,3.35
2023-01-30T10:24:06.508Z,3.95
2023-01-30T10:29:22.715Z,4.56
2023-01-30T10:34:38.805Z,4.38
2023-01-30T10:39:59.281Z,3.88
2023-01-30T10:45:02.976Z,3.65
2023-01-30T10:50:18.767Z,3.54
2023-01-30T10:55:36.377Z,3.68
2023-01-30T11:01:07.126Z,3.49
2023-01-30T11:06:16.593Z,3.47
2023-01-30T11:11:30.362Z,3.51
2023-01-30T11:16:40.382Z,3.55
2023-01-30T11:21:44.979Z,3.51
2023-01-30T11:26:48.432Z,3.51
2023-01-30T11:31:51.792Z,3.71
2023-01-30T11:36:53.420Z,3.54
2023-01-30T11:41:58.491Z,3.57
2023-01-30T11:47:15.743Z,3.52
2023-01-30T11:52:19.114Z,3.56
2023-01-30T11:57:21.054Z,3.65
2023-01-30T12:02:27.119Z,3.64
2023-01-30T12:07:30.743Z,3.47
2023-01-30T12:12:54.866Z,3.39
2023-01-30T12:18:10.650Z,3.34
2023-01-30T12:23:34.232Z,3.25
2023-01-30T12:29:03.480Z,3.21
2023-01-30T12:34:05.220Z,3.28
2023-01-30T12:39:20.492Z,3.20
2023-01-30T12:44:59.836Z,3.12
2023-01-30T12:50:21.251Z,3.03
2023-01-30T12:55:31.794Z,3.03
2023-01-30T13:00:54.823Z,2.94
2023-01-30T13:06:24.320Z,2.99
2023-01-30T13:11:45.079Z,2.91
2023-01-30T13:17:20.447Z,2.97
2023-01-30T13:22:30.797Z,2.96
2023-01-30T13:27:35.452Z,3.04
2023-01-30T13:32:52.040Z,3.02
2023-01-30T13:37:55.276Z,3.04
2023-01-30T13:43:02.312Z,2.99
2023-01-30T13:48:12.836Z,2.96
2023-01-30T13:53:22.837Z,2.93
2023-01-30T13:58:46.310Z,2.96
2023-01-30T14:03:47.861Z,2.91
2023-01-30T14:09:01.380Z,2.91
2023-01-30T14:14:23.111Z,2.88
2023-01-30T14:19:38.927Z,2.86
2023-01-30T14:24:40.566Z,2.83
2023-01-30T14:29:41.973Z,2.86
2023-01-30T14:35:10.610Z,2.83
2023-01-30T14:40:21.418Z,2.91
2023-01-30T14:45:46.355Z,2.94
2023-01-30T14:50:48.071Z,3.03
2023-01-30T14:56:00.630Z,3.11
2023-01-30T15:01:02.267Z,3.14
2023-01-30T15:06:06.725Z,3.26
2023-01-30T15:11:21.129Z,3.27
2023-01-30T15:17:05.754Z,3.31
2023-01-30T15:22:38.014Z,3.47
2023-01-30T15:28:01.909Z,3.64
2023-01-30T15:33:22.785Z,3.62
2023-01-30T15:38:33.809Z,3.56
2023-01-30T15:44:00.007Z,3.52
2023-01-30T15:49:04.371Z,3.45
2023-01-30T15:54:11.133Z,3.47
2023-01-30T15:59:28.835Z,3.47
2023-01-30T16:04:30.682Z,3.46
2023-01-30T16:09:32.148Z,3.47
2023-01-30T16:14:34.590Z,3.41
2023-01-30T16:19:39.008Z,3.33
2023-01-30T16:24:45.986Z,3.21
2023-01-30T16:29:53.148Z,3.19
2023-01-30T16:35:17.414Z,3.20
2023-01-30T16:40:24.858Z,3.22
2023-01-30T16:45:35.591Z,3.26
2023-01-30T16:50:37.086Z,3.34
2023-01-30T16:55:38.753Z,3.41
2023-01-30T17:00:40.804Z,3.46
2023-01-30T17:05:45.915Z,3.50
2023-01-30T17:10:54.920Z,3.53
2023-01-30T17:16:18.254Z,3.56
2023-01-30T17:21:20.845Z,3.50
2023-01-30T17:26:22.811Z,3.50
2023-01-30T17:31:24.607Z,3.43
2023-01-30T17:36:28.956Z,3.43
2023-01-30T17:41:32.478Z,3.52
2023-01-30T17:46:40.980Z,3.64
2023-01-30T17:51:43.211Z,3.76
2023-01-30T17:56:46.898Z,3.86
2023-01-30T18:01:50.588Z,3.92
2023-01-30T18:07:03.634Z,3.98
2023-01-30T18:12:05.278Z,3.99
2023-01-30T18:17:06.781Z,4.07
2023-01-30T18:22:08.265Z,4.14
2023-01-30T18:27:09.821Z,4.14
2023-01-30T18:32:11.245Z,4.20
2023-01-30T18:37:12.704Z,4.25
2023-01-30T18:42:14.169Z,4.28
2023-01-30T18:47:15.714Z,4.27
2023-01-30T18:52:17.119Z,4.27
2023-01-30T18:57:18.573Z,4.30
2023-01-30T19:02:20.046Z,4.31
2023-01-30T19:07:21.565Z,4.37
2023-01-30T19:12:42.387Z,4.43
2023-01-30T19:17:43.875Z,4.46
2023-01-30T19:22:45.371Z,4.48
2023-01-30T19:27:46.867Z,4.47
2023-01-30T19:32:52.012Z,4.48
2023-01-30T19:37:55.139Z,4.47
2023-01-30T19:42:59.601Z,4.45
2023-01-30T19:48:08.617Z,4.41
2023-01-30T19:53:10.096Z,4.41
2023-01-30T19:58:12.157Z,4.44
2023-01-30T20:03:16.324Z,4.43
2023-01-30T20:08:31.648Z,4.37
2023-01-30T20:13:39.092Z,4.34
2023-01-30T20:18:41.262Z,4.35
2023-01-30T20:23:46.695Z,4.40
2023-01-30T20:28:49.395Z,4.40
2023-01-30T20:33:51.370Z,4.44
2023-01-30T20:38:53.792Z,4.43
2023-01-30T20:43:59.682Z,4.45
2023-01-30T20:49:01.684Z,4.52
2023-01-30T20:54:09.235Z,4.51
2023-01-30T20:59:16.673Z,4.51
2023-01-30T21:04:19.212Z,4.45
2023-01-30T21:09:23.397Z,4.43
2023-01-30T21:14:26.596Z,4.41
2023-01-30T21:19:28.227Z,4.41
2023-01-30T21:24:30.558Z,4.35
2023-01-30T21:29:32.582Z,4.30
2023-01-30T21:34:35.208Z,4.30
2023-01-30T21:39:55.556Z,4.29
2023-01-30T21:44:58.341Z,4.28
2023-01-30T21:49:59.850Z,4.33
2023-01-30T21:55:01.260Z,4.40
2023-01-30T22:00:03.507Z,4.39
2023-01-30T22:05:05.837Z,4.37
2023-01-30T22:10:07.785Z,4.39
2023-01-30T22:15:09.603Z,4.35
2023-01-30T22:20:11.841Z,4.33
2023-01-30T22:25:13.276Z,4.34
2023-01-30T22:30:14.931Z,4.37
2023-01-30T22:35:16.457Z,4.33
2023-01-30T22:40:18.014Z,4.34
2023-01-30T22:45:19.922Z,4.32
2023-01-30T22:50:21.564Z,4.32
2023-01-30T22:55:23.173Z,4.32
2023-01-30T23:00:24.603Z,4.31
2023-01-30T23:05:26.010Z,4.35
2023-01-30T23:10:27.418Z,4.37
2023-01-30T23:15:28.847Z,4.41
2023-01-30T23:20:30.467Z,4.43
2023-01-30T23:25:31.959Z,4.49
2023-01-30T23:30:33.505Z,4.49
2023-01-30T23:35:35.427Z,4.45
2023-01-30T23:40:36.939Z,4.38
2023-01-30T23:45:38.876Z,4.35
2023-01-30T23:50:42.127Z,4.31
2023-01-30T23:55:53.202Z,4.34
